Latest Coastal Weather Observations for Lombadina

IDW60701

Issued at 12:13 pm WST Saturday 18 November 2017 (issued every 10 minutes, with the page automatically refreshed every 10 minutes)

About coastal observations | Map of coastal stations | Coastal observations for WA | Marine services | Other Formats
Station Details ID: 503016 Name: LOMBADINA AIRSTRIP Lat: -16.52 Lon: 122.92 Height: 42.0 m
Data from the previous 72 hours. | See also: Recent months for locations in Western Australia
Date/Time
WST
Temp
°C
Wind Pressure Rain since
9am
mm
Weather Cloud Vis
km
Sea
Height
m
Swell
Dir  Spd
kts
Gust
kts
hPa Trend Height
m
Period
s
Dir
18/12:00pm 33.1 WNW 7 12 1007.6 - 0.0 - Clear 10 - - - -
18/11:30am 33.3 W 8 12 1008.1 - 0.0 - - 10 - - - -
18/11:00am 33.6 WNW 7 12 1008.1 - 0.0 - - 10 - - - -
18/10:30am 33.7 WNW 7 13 1008.4 - 0.0 - - 10 - - - -
18/10:00am 33.5 WNW 7 13 1008.4 - 0.0 - - 10 - - - -
18/09:30am 34.2 WSW 5 14 1008.8 - 0.0 - - 10 - - - -
18/09:00am 32.5 SSW 5 11 1009.1 - 0.0 - - 10 - - - -
18/08:30am 32.0 SW 4 8 1009.5 - 0.0 - - 10 - - - -
18/08:00am 30.1 SW 5 9 1009.6 - 0.0 - - 10 - - - -
18/07:30am 29.3 SSW 5 10 1009.6 - 0.0 - - 10 - - - -
18/07:00am 28.2 SW 3 8 1009.5 - 0.0 - - 10 - - - -
18/06:30am 26.8 SW 3 6 1009.3 - 0.0 - - 10 - - - -
18/06:00am 26.3 CALM 0 0 1008.9 - 0.0 - - 10 - - - -
18/05:30am 24.9 CALM 0 1 1008.3 - 0.0 - - 10 - - - -
18/05:00am 24.7 CALM 0 1 1008.0 - 0.0 - - 10 - - - -
18/04:30am 24.8 CALM 0 3 1007.9 - 0.0 - - 10 - - - -
18/04:00am 25.2 S 1 3 1007.9 - 0.0 - - 10 - - - -
18/03:30am 25.4 SSW 2 4 1007.5 - 0.0 - Partly cloudy 10 - - - -
18/03:00am 25.7 SSW 3 6 1007.8 - 0.0 - Partly cloudy 10 - - - -
18/02:30am 25.6 SSE 4 7 1008.1 - 0.0 - Partly cloudy 10 - - - -
18/02:00am 25.6 S 1 3 1008.0 - 0.0 - - 10 - - - -
18/01:30am 25.7 CALM 0 0 1008.1 - 0.0 - - 10 - - - -
18/01:00am 26.1 CALM 0 0 1008.2 - 0.0 - Partly cloudy 10 - - - -
18/12:30am 26.2 CALM 0 3 1008.8 - 0.0 - Partly cloudy 10 - - - -
18/12:00am 26.3 SW 2 4 1008.8 - 0.0 - - 10 - - - -
 
Date/Time
WST
Temp
°C
Wind Pressure Rain since
9am
mm
Weather Cloud Vis
km
Sea
Height
m
Swell
Dir  Spd
kts
Gust
kts
hPa Trend Height
m
Period
s
Dir
17/11:30pm 26.7 WSW 1 4 1009.2 - 0.0 - - 10 - - - -
17/11:00pm 27.0 SSW 2 5 1009.3 - 0.0 - - 10 - - - -
17/10:30pm 27.2 SW 4 8 1009.3 - 0.0 - - 10 - - - -
17/10:00pm 27.4 WSW 5 11 1009.2 - 0.0 - - 10 - - - -
17/09:30pm 27.6 SW 6 11 1009.0 - 0.0 - - 10 - - - -
17/09:00pm 27.6 WSW 6 13 1008.7 - 0.0 - - 10 - - - -
17/08:30pm 27.7 WSW 7 13 1008.6 - 0.0 - - 10 - - - -
17/08:00pm 27.8 WSW 7 12 1008.2 - 0.0 - - 10 - - - -
17/07:30pm 27.8 WSW 7 13 1007.7 - 0.0 - - 10 - - - -
17/07:00pm 27.9 WSW 7 14 1007.2 - 0.0 - - 10 - - - -
17/06:30pm 28.1 WSW 7 14 1006.5 - 0.0 - - 10 - - - -
17/06:00pm 28.3 WSW 8 18 1006.1 - 0.0 - - 10 - - - -
17/05:30pm 29.0 WSW 7 13 1005.9 - 0.0 - - 10 - - - -
17/05:00pm 29.4 W 9 22 1005.7 - 0.0 - - 10 - - - -
17/04:30pm 30.0 W 9 16 1005.6 - 0.0 - - 10 - - - -
17/04:00pm 31.1 W 8 15 1005.6 - 0.0 - - 10 - - - -
17/03:30pm 31.8 WSW 9 17 1005.5 - 0.0 - - 10 - - - -
17/03:00pm 31.2 W 10 18 1005.6 - 0.0 - - 10 - - - -
17/02:30pm 31.3 W 10 15 1005.9 - 0.0 - - 10 - - - -
17/02:00pm 31.6 WNW 10 19 1006.3 - 0.0 - - 10 - - - -
17/01:30pm 32.4 WNW 8 15 1006.7 - 0.0 - - 10 - - - -
17/01:00pm 32.1 NW 9 14 1007.1 - 0.0 - - 10 - - - -
17/12:30pm 32.5 WNW 9 15 1007.5 - 0.0 - - 10 - - - -
17/12:00pm 32.0 WNW 7 13 1008.2 - 0.0 - - 10 - - - -
17/11:30am 32.1 NW 8 13 1008.6 - 0.0 - - 10 - - - -
17/11:00am 31.5 WNW 8 13 1008.9 - 0.0 - - 10 - - - -
17/10:30am 32.2 WNW 7 11 1009.2 - 0.0 - - 10 - - - -
17/10:00am 31.8 NW 7 10 1009.6 - 0.0 - - 10 - - - -
17/09:30am 31.2 NW 7 12 1010.1 - 0.0 - - 10 - - - -
17/09:00am 31.9 SSW 4 8 1010.3 - 0.0 - - 10 - - - -
17/08:30am 31.5 SSW 6 10 1010.3 - 0.0 - - 10 - - - -
17/08:00am 30.2 SSW 5 11 1010.1 - 0.0 - - 10 - - - -
17/07:30am 29.3 SSE 4 8 1010.1 - 0.0 - - 10 - - - -
17/07:00am 28.2 SSE 3 7 1009.9 - 0.0 - Partly cloudy 10 - - - -
17/06:30am 26.5 SE 3 6 1009.8 - 0.0 - Partly cloudy 10 - - - -
17/06:00am 25.7 S 3 4 1009.2 - 0.0 - - 10 - - - -
17/05:30am 24.9 SE 2 4 1009.2 - 0.0 - - 10 - - - -
17/05:00am 24.3 SE 2 3 1008.8 - 0.0 - - 10 - - - -
17/04:30am 24.7 E 2 3 1008.4 - 0.0 - - 10 - - - -
17/04:00am 24.8 S 2 4 1008.0 - 0.0 - - 10 - - - -
17/03:30am 25.1 SE 3 4 1007.7 - 0.0 - - 10 - - - -
17/03:00am 25.1 S 1 2 1007.4 - 0.0 - - 10 - - - -
17/02:30am 25.8 SSW 2 4 1007.0 - 0.0 - Partly cloudy 10 - - - -
17/02:00am 26.6 SW 2 4 1007.1 - 0.0 - Partly cloudy 10 - - - -
17/01:30am 26.7 WSW 3 5 1007.2 - 0.0 - - 10 - - - -
17/01:00am 26.9 WSW 3 6 1007.3 - 0.0 - Partly cloudy 10 - - - -
17/12:30am 27.0 WSW 3 7 1007.4 - 0.0 - - 10 - - - -
17/12:00am 27.1 WSW 6 11 1007.2 - 0.0 - - 10 - - - -
 
Date/Time
WST
Temp
°C
Wind Pressure Rain since
9am
mm
Weather Cloud Vis
km
Sea
Height
m
Swell
Dir  Spd
kts
Gust
kts
hPa Trend Height
m
Period
s
Dir
16/11:30pm 27.4 WSW 5 10 1007.7 - 0.0 - - 10 - - - -
16/11:00pm 27.4 WSW 5 9 1008.0 - 0.0 - - 10 - - - -
16/10:30pm 27.5 W 5 11 1007.8 - 0.0 - - 10 - - - -
16/10:00pm 27.5 WSW 7 13 1007.8 - 0.0 - - 10 - - - -
16/09:30pm 27.7 WSW 8 14 1007.7 - 0.0 - - 10 - - - -
16/09:00pm 27.7 WSW 8 15 1007.5 - 0.0 - - 10 - - - -
16/08:30pm 27.8 WSW 8 14 1007.5 - 0.0 - - 10 - - - -
16/08:00pm 27.9 WSW 8 13 1007.2 - 0.0 - - 10 - - - -
16/07:30pm 27.9 WSW 7 12 1006.8 - 0.0 - - 10 - - - -
16/07:00pm 28.0 W 7 14 1006.4 - 0.0 - - 10 - - - -
16/06:30pm 28.0 W 7 12 1006.0 - 0.0 - - 10 - - - -
16/06:00pm 28.2 W 8 13 1005.9 - 0.0 - - 10 - - - -
16/05:30pm 28.8 W 7 17 1005.7 - 0.0 - - 10 - - - -
16/05:00pm 29.1 W 10 16 1005.6 - 0.0 - - 10 - - - -
16/04:30pm 29.6 WSW 10 18 1005.4 - 0.0 - - 10 - - - -
16/04:00pm 30.1 W 12 21 1005.1 - 0.0 - - 10 - - - -
16/03:30pm 30.9 W 10 18 1005.2 - 0.0 - - 10 - - - -
16/03:00pm 30.4 W 12 19 1005.3 - 0.0 - - 10 - - - -
16/02:30pm 31.0 W 10 18 1005.8 - 0.0 - - 10 - - - -
16/02:00pm 31.9 W 9 16 1006.0 - 0.0 - - 10 - - - -
16/01:30pm 31.6 W 9 17 1006.4 - 0.0 - - 10 - - - -
16/01:00pm 31.6 W 10 17 1006.9 - 0.0 - - 10 - - - -
16/12:30pm 32.8 WNW 8 18 1007.4 - 0.0 - - 10 - - - -
16/12:00pm 32.5 WNW 8 13 1007.7 - 0.0 - - 10 - - - -
16/11:30am 32.0 WNW 8 13 1008.0 - 0.0 - - 10 - - - -
16/11:00am 32.0 WNW 8 13 1008.4 - 0.0 - - 10 - - - -
16/10:30am 32.1 WNW 8 12 1009.0 - 0.0 - - 10 - - - -
16/10:00am 32.2 WNW 8 13 1009.2 - 0.0 - - 10 - - - -
16/09:30am 32.7 NW 3 11 1009.4 - 0.0 - - 10 - - - -
16/09:00am 32.2 SSW 4 7 1009.8 - 0.0 - - 10 - - - -
16/08:30am 30.8 S 4 8 1010.2 - 0.0 - - 10 - - - -
16/08:00am 30.4 SSW 4 9 1010.1 - 0.0 - - 10 - - - -
16/07:30am 28.8 SSW 5 10 1010.2 - 0.0 - - 10 - - - -
16/07:00am 27.8 SSW 5 9 1010.2 - 0.0 - - 10 - - - -
16/06:30am 27.0 SW 3 5 1009.9 - 0.0 - - 10 - - - -
16/06:00am 26.3 CALM 0 2 1009.8 - 0.0 - - 10 - - - -
16/05:30am 24.2 ESE 1 2 1009.5 - 0.0 - - 10 - - - -
16/05:00am 24.2 ESE 1 2 1009.2 - 0.0 - - 10 - - - -
16/04:30am 24.5 ESE 2 4 1009.0 - 0.0 - - 10 - - - -
16/04:00am 24.7 E 2 4 1008.7 - 0.0 - - 10 - - - -
16/03:30am 25.2 E 1 3 1008.3 - 0.0 - - 10 - - - -
16/03:00am 25.8 S 1 4 1007.8 - 0.0 - - 10 - - - -
16/02:30am 25.9 SW 4 6 1007.3 - 0.0 - - 10 - - - -
16/02:00am 26.1 SW 4 8 1007.1 - 0.0 - - 10 - - - -
16/01:30am 26.6 SW 5 11 1007.0 - 0.0 - - 10 - - - -
16/01:00am 26.6 WSW 6 11 1007.1 - 0.0 - - 10 - - - -
16/12:30am 26.6 WSW 5 10 1007.5 - 0.0 - - 10 - - - -
16/12:00am 26.6 WSW 5 10 1007.7 - 0.0 - - 10 - - - -
 
Date/Time
WST
Temp
°C
Wind Pressure Rain since
9am
mm
Weather Cloud Vis
km
Sea
Height
m
Swell
Dir  Spd
kts
Gust
kts
hPa Trend Height
m
Period
s
Dir
15/11:30pm 26.7 WSW 5 11 1007.9 - 0.0 - - 10 - - - -
15/11:00pm 26.8 WSW 6 12 1008.2 - 0.0 - - 10 - - - -
15/10:30pm 26.9 WSW 6 10 1008.4 - 0.0 - - 10 - - - -
15/10:00pm 27.0 WSW 7 12 1008.4 - 0.0 - - 10 - - - -
15/09:30pm 27.1 WSW 7 12 1008.4 - 0.0 - - 10 - - - -
15/09:00pm 27.3 WSW 7 12 1008.4 - 0.0 - - 10 - - - -
15/08:30pm 27.3 WSW 6 14 1008.3 - 0.0 - - 10 - - - -
15/08:00pm 27.5 WSW 6 10 1008.3 - 0.0 - - 10 - - - -
15/07:30pm 27.6 WSW 5 9 1008.1 - 0.0 - - 10 - - - -
15/07:00pm 27.7 WSW 6 12 1007.9 - 0.0 - - 10 - - - -
15/06:30pm 27.9 W 8 14 1007.5 - 0.0 - - 10 - - - -
15/06:00pm 28.2 WSW 5 10 1007.2 - 0.0 - - 10 - - - -
15/05:30pm 28.8 WSW 8 15 1007.1 - 0.0 - - 10 - - - -
15/05:00pm 29.1 W 10 17 1007.0 - 0.0 - - 10 - - - -
15/04:30pm 29.6 WSW 10 19 1006.8 - 0.0 - - 10 - - - -
15/04:00pm 30.8 WSW 9 18 1006.9 - 0.0 - - 10 - - - -
15/03:30pm 30.5 W 9 15 1007.2 - 0.0 - - 10 - - - -
15/03:00pm 30.4 W 10 16 1007.3 - 0.0 - - 10 - - - -
15/02:30pm 31.0 W 10 18 1007.6 - 0.0 - - 10 - - - -
15/02:00pm 31.1 W 10 18 1007.9 - 0.0 - - 10 - - - -
15/01:30pm 31.6 W 8 16 1008.2 - 0.0 - - 10 - - - -
15/01:00pm 31.2 W 10 15 1008.3 - 0.0 - - 10 - - - -
15/12:30pm 33.1 WNW 8 13 1008.9 - 0.0 - - 10 - - - -

Other Formats:

Comma delimited format used in spreadsheet applications
http://www.bom.gov.au/fwo/IDW60701/IDW60701.99206.axf

JavaScript Object Notation format (JSON) in row-major order
http://www.bom.gov.au/fwo/IDW60701/IDW60701.99206.json